METAR Data
IDs: Format: Raw Decoded Include TAF

Data at: 0246 UTC 29 May 2022

KFKR 290235Z AUTO 16005KT 10SM CLR 16/14 A2990 RMK AO2